Time;durP1;ratioP1;P1;durP2;ratioP2;P2;SDS_P1;SDS_P2;PMS_P1;PMS_P2;Temp;Humidity;BMP_temperature;BMP_pressure;BME280_temperature;BME280_humidity;BME280_pressure;Samples;Min_cycle;Max_cycle;Signal;HPM_P1;HPM_P2
2021/04/21 00:00:08;;;;;;;30.42;9.77;;;;;;;18.33;45.19;101037.47;5050901;28;20053;-72
2021/04/21 00:02:36;;;;;;;17.33;10.38;;;;;;;18.35;44.77;101032.34;5032302;28;20063;-69
2021/04/21 00:05:04;;;;;;;21.77;11.75;;;;;;;18.24;45.71;101028.44;5016672;28;20185;-73
2021/04/21 00:07:32;;;;;;;18.45;9.65;;;;;;;18.16;45.55;101031.41;5016337;28;20053;-71
2021/04/21 00:10:00;;;;;;;20.25;11.60;;;;;;;18.04;45.67;101029.50;5050347;28;20056;-73
2021/04/21 00:12:29;;;;;;;27.70;13.38;;;;;;;18.01;45.86;101023.81;5050084;28;20068;-74
2021/04/21 00:14:56;;;;;;;22.55;13.00;;;;;;;17.92;45.80;101024.00;5016776;28;20496;-70
2021/04/21 00:17:24;;;;;;;18.05;10.82;;;;;;;18.15;45.09;101021.44;5016265;28;20060;-70
2021/04/21 00:19:54;;;;;;;23.88;13.10;;;;;;;17.67;46.98;101023.28;5049880;28;20045;-73
2021/04/21 00:22:24;;;;;;;22.00;13.23;;;;;;;17.88;46.16;101031.44;5050528;28;20059;-69
2021/04/21 00:24:52;;;;;;;23.77;12.45;;;;;;;18.11;45.56;101026.09;5032715;28;20052;-70
2021/04/21 00:27:21;;;;;;;20.80;11.75;;;;;;;18.21;45.48;101020.00;5016367;28;20056;-71
2021/04/21 00:29:51;;;;;;;28.52;14.18;;;;;;;18.04;45.12;101028.69;5031934;28;20063;-74
2021/04/21 00:32:19;;;;;;;20.13;13.23;;;;;;;18.08;45.67;101033.19;5032303;28;20044;-70
2021/04/21 00:34:47;;;;;;;27.10;14.05;;;;;;;17.94;45.80;101027.19;5031728;28;20500;-70
2021/04/21 00:37:15;;;;;;;19.95;13.18;;;;;;;17.97;46.13;101023.72;5031584;28;20045;-72
2021/04/21 00:39:43;;;;;;;20.17;13.45;;;;;;;17.92;45.74;101024.78;5032412;28;20053;-69
2021/04/21 00:42:35;;;;;;;24.88;13.00;;;;;;;18.05;45.09;101025.53;5032477;28;20053;-73
2021/04/21 00:45:09;;;;;;;20.33;14.20;;;;;;;18.01;45.57;101021.03;5031527;28;20068;-74
2021/04/21 00:47:55;;;;;;;35.22;14.60;;;;;;;17.96;45.33;101022.91;5011663;28;20440;-76
2021/04/21 00:50:35;;;;;;;23.80;12.70;;;;;;;18.16;45.52;101020.25;5032033;28;20049;-70
2021/04/21 00:53:04;;;;;;;;;;;;;;;18.10;45.16;101027.28;5033066;28;20049;-72
2021/04/21 00:55:35;;;;;;;21.73;14.43;;;;;;;17.43;46.41;101036.41;5016706;28;19929;-70
2021/04/21 00:58:10;;;;;;;19.13;12.57;;;;;;;17.76;46.38;101026.72;5032162;28;20037;-71
2021/04/21 01:00:44;;;;;;;23.38;14.30;;;;;;;17.83;45.99;101026.09;5000707;28;20045;-73
2021/04/21 01:03:24;;;;;;;24.17;15.55;;;;;;;17.34;42.58;101024.59;5032178;28;20060;-75
2021/04/21 01:06:00;;;;;;;28.85;17.02;;;;;;;17.10;46.19;101031.03;5016730;28;20072;-75
2021/04/21 01:08:30;;;;;;;29.38;16.45;;;;;;;17.36;46.11;101025.88;5051665;28;20503;-76
2021/04/21 01:11:01;;;;;;;32.63;14.93;;;;;;;17.73;46.61;101021.84;5021530;28;20049;-76
2021/04/21 01:13:37;;;;;;;23.25;14.88;;;;;;;17.39;46.58;101032.69;5017390;28;20056;-72
2021/04/21 01:16:07;;;;;;;24.98;13.90;;;;;;;17.16;46.62;101026.81;5017814;28;20053;-74
2021/04/21 01:18:34;;;;;;;28.10;15.70;;;;;;;17.13;47.43;101029.50;5015739;28;20049;-74
2021/04/21 01:21:05;;;;;;;25.40;14.90;;;;;;;17.50;47.02;101020.78;5050163;28;20053;-72
2021/04/21 01:23:52;;;;;;;24.70;14.45;;;;;;;17.69;46.21;101020.94;5035082;28;20057;-74
2021/04/21 01:26:42;;;;;;;23.65;14.32;;;;;;;17.71;46.47;101013.00;5018053;28;20061;-76
2021/04/21 01:29:10;;;;;;;22.00;12.65;;;;;;;17.81;46.16;101012.53;5039406;28;20057;-75
2021/04/21 01:31:37;;;;;;;20.90;11.85;;;;;;;17.73;45.97;101010.69;5036813;28;20064;-73
2021/04/21 01:34:05;;;;;;;20.95;13.70;;;;;;;17.72;46.09;101002.69;5017165;28;20045;-74
2021/04/21 01:36:33;;;;;;;22.85;12.38;;;;;;;17.58;46.34;101002.28;5038506;28;20056;-72
2021/04/21 01:39:03;;;;;;;27.60;13.65;;;;;;;17.60;46.49;101002.75;5038144;28;20053;-69
2021/04/21 01:41:35;;;;;;;18.77;11.05;;;;;;;17.52;46.76;101000.91;5056789;28;20056;-70
2021/04/21 01:44:04;;;;;;;16.88;11.73;;;;;;;17.53;46.47;100996.97;5021554;28;20057;-70
2021/04/21 01:46:35;;;;;;;19.95;11.60;;;;;;;17.50;46.73;101014.38;5039237;28;20044;-74
2021/04/21 01:49:12;;;;;;;16.52;11.98;;;;;;;17.52;47.29;101004.50;5057914;28;20060;-71
2021/04/21 01:51:41;;;;;;;19.55;11.27;;;;;;;17.48;46.94;101003.59;5023863;28;20049;-70
2021/04/21 01:54:15;;;;;;;20.15;12.13;;;;;;;17.40;47.51;101006.50;5022762;28;20139;-72
2021/04/21 01:56:50;;;;;;;25.30;13.20;;;;;;;17.46;47.23;101011.50;5036266;28;20428;-72
2021/04/21 01:59:35;;;;;;;29.00;11.73;;;;;;;17.55;47.07;101003.81;5035675;28;20378;-70
2021/04/21 02:02:10;;;;;;;17.73;11.60;;;;;;;17.59;46.72;101007.50;5035614;28;20055;-69
2021/04/21 02:04:59;;;;;;;17.33;11.45;;;;;;;17.60;46.87;101006.34;5018277;28;20052;-74
2021/04/21 02:08:00;;;;;;;20.00;12.40;;;;;;;17.55;47.10;101005.78;5052859;28;20049;-73
2021/04/21 02:10:57;;;;;;;18.27;11.88;;;;;;;17.46;47.26;101013.44;5034424;28;20061;-72
2021/04/21 02:13:33;;;;;;;21.05;12.40;;;;;;;17.26;47.61;101011.63;5033797;28;20048;-71
2021/04/21 02:16:12;;;;;;;21.65;12.00;;;;;;;17.27;47.54;101016.84;5002588;28;20049;-70
2021/04/21 02:19:16;;;;;;;17.65;11.45;;;;;;;17.29;47.79;101020.09;5053124;28;20052;-71
2021/04/21 02:22:06;;;;;;;19.85;11.88;;;;;;;17.29;47.69;101016.50;5052097;28;20055;-70
2021/04/21 02:24:46;;;;;;;25.77;11.15;;;;;;;17.31;47.98;101014.16;5053122;28;20057;-71
2021/04/21 02:28:02;;;;;;;19.92;11.77;;;;;;;17.34;47.70;101013.47;5035316;28;20061;-72
2021/04/21 02:30:50;;;;;;;20.73;12.82;;;;;;;17.18;47.74;101016.16;4956074;28;20433;-71
2021/04/21 02:33:24;;;;;;;17.58;12.07;;;;;;;17.19;48.03;101014.97;4955638;28;20051;-73
2021/04/21 02:36:22;;;;;;;18.70;11.63;;;;;;;17.19;47.79;101011.41;4971543;28;20117;-70
2021/04/21 02:39:17;;;;;;;20.60;12.82;;;;;;;17.36;47.96;101020.31;4901597;29;20422;-72
2021/04/21 02:41:46;;;;;;;20.98;12.68;;;;;;;17.29;47.56;101013.69;4930126;29;20056;-72
2021/04/21 02:44:32;;;;;;;19.25;12.15;;;;;;;17.12;47.72;101008.41;4916233;29;20052;-70
2021/04/21 02:47:07;;;;;;;19.02;11.77;;;;;;;17.07;48.19;101017.78;4932917;29;20060;-69
2021/04/21 02:49:40;;;;;;;21.08;12.95;;;;;;;17.08;48.31;101013.03;4932523;29;20056;-71
2021/04/21 02:52:32;;;;;;;23.00;13.95;;;;;;;17.04;48.20;101012.09;4933422;29;20055;-73
2021/04/21 02:55:05;;;;;;;23.15;15.75;;;;;;;16.81;48.94;101014.56;4932462;29;20054;-72
2021/04/21 02:57:38;;;;;;;20.30;14.43;;;;;;;16.92;48.63;101017.69;4932534;29;20184;-70
2021/04/21 03:00:08;;;;;;;27.13;15.02;;;;;;;16.92;48.55;101018.50;4932722;29;20410;-73
2021/04/21 03:03:12;;;;;;;24.95;15.38;;;;;;;17.03;47.96;101019.66;4932064;29;20060;-70
2021/04/21 03:05:45;;;;;;;23.73;14.18;;;;;;;17.02;48.36;101009.66;5010086;28;20042;-73
2021/04/21 03:08:26;;;;;;;18.67;11.45;;;;;;;17.17;48.30;101013.72;4976328;28;20058;-69
2021/04/21 03:11:05;;;;;;;21.60;13.85;;;;;;;17.19;47.97;101014.97;4992472;28;20046;-70
2021/04/21 03:13:41;;;;;;;19.17;13.25;;;;;;;17.12;48.34;101016.75;4992970;28;20065;-71
2021/04/21 03:16:12;;;;;;;23.08;12.55;;;;;;;17.24;48.04;101009.19;5025823;28;20176;-71
2021/04/21 03:18:42;;;;;;;19.75;13.18;;;;;;;17.27;47.88;101008.50;5051464;28;20052;-70
2021/04/21 03:21:17;;;;;;;24.38;14.48;;;;;;;17.10;47.84;101017.09;5051070;28;20056;-69
2021/04/21 03:23:45;;;;;;;18.77;12.00;;;;;;;17.12;48.57;101006.41;5033136;28;20057;-72
2021/04/21 03:26:13;;;;;;;21.23;12.85;;;;;;;17.01;48.17;101010.03;5017308;28;20063;-74
2021/04/21 03:28:41;;;;;;;24.60;14.85;;;;;;;16.92;48.60;101012.13;5051439;28;20037;-70
2021/04/21 03:31:09;;;;;;;22.27;13.52;;;;;;;17.01;48.51;101010.84;5033557;28;20401;-71
2021/04/21 03:33:41;;;;;;;18.50;13.40;;;;;;;16.91;48.69;101008.53;5051953;28;20053;-70
2021/04/21 03:36:10;;;;;;;20.77;13.73;;;;;;;16.99;48.49;101013.16;5042667;28;20045;-70
2021/04/21 03:38:38;;;;;;;27.35;15.75;;;;;;;16.95;48.24;101014.19;5018270;28;20044;-73
2021/04/21 03:41:06;;;;;;;22.25;12.68;;;;;;;16.97;48.62;101018.25;5034211;28;20056;-69
2021/04/21 03:43:34;;;;;;;20.27;13.55;;;;;;;16.97;48.21;101014.66;5050379;28;20389;-71
2021/04/21 03:46:01;;;;;;;21.05;13.18;;;;;;;16.81;49.19;101015.38;5017248;28;20052;-73
2021/04/21 03:48:29;;;;;;;20.90;14.40;;;;;;;16.77;49.14;101014.44;5050651;28;20045;-73
2021/04/21 03:50:56;;;;;;;25.65;14.98;;;;;;;16.79;48.69;101011.31;5051182;28;20056;-73
2021/04/21 03:53:26;;;;;;;22.67;15.38;;;;;;;16.65;47.80;101017.22;5051235;28;20511;-72
2021/04/21 03:55:56;;;;;;;22.95;13.90;;;;;;;16.56;49.25;101010.16;5035199;28;20045;-69
2021/04/21 03:58:25;;;;;;;22.70;14.75;;;;;;;16.37;49.75;101013.44;5034690;28;20063;-73
2021/04/21 04:00:57;;;;;;;33.17;18.67;;;;;;;16.17;47.46;101019.91;5033185;28;20045;-68
2021/04/21 04:03:27;;;;;;;29.67;18.63;;;;;;;15.81;49.97;101016.19;5033903;28;20045;-69
2021/04/21 04:06:02;;;;;;;36.28;19.02;;;;;;;15.49;50.44;101023.31;5036290;28;20052;-70
2021/04/21 04:08:34;;;;;;;25.15;16.58;;;;;;;15.79;51.33;101019.31;5033627;28;20061;-74
2021/04/21 04:11:03;;;;;;;30.98;17.55;;;;;;;16.08;49.73;101023.91;5018779;28;20405;-74
2021/04/21 04:13:32;;;;;;;25.35;19.02;;;;;;;15.72;50.63;101011.53;5018587;28;20072;-70
2021/04/21 04:16:00;;;;;;;32.07;18.33;;;;;;;16.20;50.32;101007.25;5018428;28;20048;-73
2021/04/21 04:18:29;;;;;;;30.85;18.73;;;;;;;16.21;49.74;101018.06;5022163;28;20310;-73
2021/04/21 04:20:57;;;;;;;28.65;17.33;;;;;;;16.13;50.33;101007.81;5035319;28;20048;-70
2021/04/21 04:23:28;;;;;;;27.73;16.77;;;;;;;16.35;49.45;101007.41;5033151;28;20432;-73
2021/04/21 04:25:58;;;;;;;26.83;17.85;;;;;;;16.48;49.57;101016.63;5050976;28;20052;-76
2021/04/21 04:28:27;;;;;;;30.33;18.92;;;;;;;15.93;50.25;101016.22;5017602;28;20041;-74
2021/04/21 04:30:55;;;;;;;31.15;20.20;;;;;;;15.53;51.39;101016.72;5034069;28;20052;-76
2021/04/21 04:33:23;;;;;;;21.85;15.32;;;;;;;16.00;51.53;101013.69;5033450;28;20048;-70
2021/04/21 04:35:52;;;;;;;31.80;20.27;;;;;;;15.27;51.92;101010.53;5032941;28;20041;-73
2021/04/21 04:38:19;;;;;;;24.50;17.17;;;;;;;15.72;51.85;101010.72;5051070;28;20061;-71
2021/04/21 04:40:50;;;;;;;28.08;20.13;;;;;;;16.02;49.81;101015.00;5052937;28;20045;-70
2021/04/21 04:43:20;;;;;;;34.40;21.25;;;;;;;15.34;49.36;101021.13;5019389;28;20057;-72
2021/04/21 04:46:00;;;;;;;29.17;19.00;;;;;;;15.14;52.92;101028.25;5053969;28;20053;-74
2021/04/21 04:48:55;;;;;;;34.30;21.08;;;;;;;14.53;52.92;101029.72;5035150;28;20380;-75
2021/04/21 04:51:22;;;;;;;35.17;21.65;;;;;;;14.91;51.63;101035.25;4969212;28;20061;-72
2021/04/21 04:53:49;;;;;;;34.50;21.63;;;;;;;15.26;51.94;101035.84;4937937;28;20057;-73
2021/04/21 04:56:17;;;;;;;32.80;18.40;;;;;;;15.53;52.04;101033.38;4969514;28;20091;-72
2021/04/21 04:58:46;;;;;;;32.28;17.23;;;;;;;15.74;51.82;101034.19;4968550;28;20047;-72
2021/04/21 05:01:15;;;;;;;36.58;21.55;;;;;;;16.07;49.41;101036.19;4968916;28;20046;-70
2021/04/21 05:03:51;;;;;;;32.70;19.40;;;;;;;15.96;50.14;101041.34;4968786;28;20058;-72
2021/04/21 05:06:24;;;;;;;27.67;18.77;;;;;;;16.06;50.22;101034.53;4953014;28;20047;-73
2021/04/21 05:08:52;;;;;;;36.17;23.15;;;;;;;15.19;49.64;101044.72;4953180;28;20467;-76
2021/04/21 05:11:22;;;;;;;33.08;19.45;;;;;;;15.33;51.85;101050.81;4937850;28;20051;-72
2021/04/21 05:13:51;;;;;;;36.58;23.00;;;;;;;15.47;50.89;101048.63;4956391;28;20070;-72
2021/04/21 05:16:26;;;;;;;37.67;22.50;;;;;;;15.65;49.95;101052.09;4973269;28;20082;-73
2021/04/21 05:19:30;;;;;;;33.80;21.30;;;;;;;15.10;53.02;101054.25;4973268;28;20065;-69
2021/04/21 05:22:26;;;;;;;36.05;23.75;;;;;;;14.92;52.71;101048.00;4973662;28;20051;-71
2021/04/21 05:25:05;;;;;;;34.03;22.83;;;;;;;15.51;51.64;101048.78;4957030;28;20053;-77
2021/04/21 05:28:03;;;;;;;33.53;20.65;;;;;;;15.98;50.38;101049.34;4982904;28;20047;-74
2021/04/21 05:31:05;;;;;;;30.65;19.17;;;;;;;16.02;50.19;101047.53;5052905;28;20049;-71
2021/04/21 05:33:47;;;;;;;42.38;22.38;;;;;;;15.90;50.56;101051.03;5019588;28;20052;-70
2021/04/21 05:40:50;;;;;;;38.63;20.20;;;;;;;16.11;49.80;101060.16;4952942;28;20058;-70
2021/04/21 05:43:38;;;;;;;43.33;25.80;;;;;;;15.37;51.47;101074.00;4972270;28;20419;-71
2021/04/21 05:46:54;;;;;;;40.45;24.83;;;;;;;14.97;51.40;101067.22;4972702;28;20058;-71
2021/04/21 05:49:36;;;;;;;39.63;23.05;;;;;;;15.19;50.71;101075.25;4972425;28;20046;-77
2021/04/21 05:52:14;;;;;;;42.30;25.67;;;;;;;15.01;52.40;101070.94;4972224;28;20560;-73
2021/04/21 05:55:02;;;;;;;40.10;25.90;;;;;;;15.15;51.86;101076.25;4956077;28;20042;-72
2021/04/21 05:57:51;;;;;;;30.33;21.90;;;;;;;15.76;51.05;101067.19;4955931;28;20047;-72
2021/04/21 06:00:33;;;;;;;36.30;24.23;;;;;;;16.17;49.68;101074.66;4955563;28;20050;-72
2021/04/21 06:03:01;;;;;;;36.88;24.25;;;;;;;16.22;49.67;101066.91;4971807;28;20066;-74
2021/04/21 06:05:28;;;;;;;39.88;25.30;;;;;;;15.96;46.52;101069.13;4971810;28;20046;-76
2021/04/21 06:07:55;;;;;;;30.85;20.25;;;;;;;16.34;49.35;101072.50;4972191;28;20517;-76
2021/04/21 06:10:25;;;;;;;32.58;23.20;;;;;;;16.44;49.00;101079.63;4972010;28;20388;-75
2021/04/21 06:12:55;;;;;;;42.35;24.52;;;;;;;16.61;48.36;101071.09;4970922;28;20046;-70
2021/04/21 06:15:27;;;;;;;36.60;22.63;;;;;;;16.86;48.09;101072.75;4972298;28;20054;-71
2021/04/21 06:17:56;;;;;;;35.60;19.63;;;;;;;17.05;47.56;101072.97;5013771;28;20057;-73
2021/04/21 06:20:33;;;;;;;39.70;25.53;;;;;;;16.66;48.14;101074.50;4999002;28;20049;-73
2021/04/21 06:23:12;;;;;;;35.03;24.20;;;;;;;16.57;48.47;101082.13;5014842;28;20751;-74
2021/04/21 06:26:02;;;;;;;37.58;24.27;;;;;;;16.55;48.87;101081.63;5014894;28;20069;-72
2021/04/21 06:28:30;;;;;;;40.22;24.52;;;;;;;16.86;46.67;101081.09;5040172;28;20412;-76
2021/04/21 06:31:11;;;;;;;42.20;23.58;;;;;;;16.85;53.49;101085.88;4998661;28;20054;-71
2021/04/21 06:33:42;;;;;;;;;;;;;;;17.02;59.52;101086.78;5015805;28;20527;-71
2021/04/21 06:36:11;;;;;;;50.00;27.45;;;;;;;17.31;63.42;101083.78;5033324;28;19921;-75
2021/04/21 06:38:39;;;;;;;49.22;31.02;;;;;;;17.03;59.23;101083.69;5014825;28;20058;-71
2021/04/21 06:41:07;;;;;;;49.97;29.15;;;;;;;16.70;62.48;101088.53;5015269;28;20053;-70
2021/04/21 06:43:36;;;;;;;51.55;32.00;;;;;;;16.79;60.45;101095.59;5020891;28;20061;-69
2021/04/21 06:46:10;;;;;;;45.53;27.37;;;;;;;16.97;59.84;101087.84;5033991;28;20484;-70
2021/04/21 06:48:39;;;;;;;51.00;28.83;;;;;;;17.24;59.23;101097.47;5035581;28;20045;-72
2021/04/21 06:51:15;;;;;;;43.15;27.45;;;;;;;17.21;58.76;101095.38;5052343;28;20539;-71
2021/04/21 06:53:44;;;;;;;47.25;30.10;;;;;;;17.06;56.72;101096.88;5034661;28;20527;-69
2021/04/21 06:56:13;;;;;;;43.80;26.63;;;;;;;17.30;56.77;101098.84;5052611;28;20053;-69
2021/04/21 06:58:43;;;;;;;48.40;29.63;;;;;;;17.37;54.92;101101.84;5051758;28;20053;-68
2021/04/21 07:01:13;;;;;;;63.15;32.40;;;;;;;17.38;54.23;101098.72;5048791;28;20052;-68
2021/04/21 07:03:41;;;;;;;58.42;37.10;;;;;;;17.41;51.84;101103.59;5050866;28;20041;-70
2021/04/21 07:06:08;;;;;;;65.18;41.85;;;;;;;16.78;55.63;101109.84;5050644;28;20060;-69
2021/04/21 07:08:38;;;;;;;77.72;39.28;;;;;;;16.78;54.83;101098.72;5048169;28;20064;-70
2021/04/21 07:11:21;;;;;;;78.90;51.88;;;;;;;16.50;52.95;101101.34;5036358;28;20480;-70
2021/04/21 07:13:50;;;;;;;79.13;50.40;;;;;;;16.05;56.27;101092.09;5032980;28;20049;-70
2021/04/21 07:16:22;;;;;;;76.32;51.35;;;;;;;14.88;51.34;101101.66;5050239;28;20159;-70
2021/04/21 07:18:52;;;;;;;76.57;48.55;;;;;;;15.73;57.82;101096.47;5031475;28;20488;-69
2021/04/21 07:21:19;;;;;;;77.95;51.17;;;;;;;16.40;49.07;101098.13;5033198;28;20041;-71
2021/04/21 07:23:52;;;;;;;81.50;52.53;;;;;;;16.14;51.34;101098.41;5016261;28;20053;-70
2021/04/21 07:26:27;;;;;;;73.55;50.53;;;;;;;15.89;51.43;101101.38;5016951;28;20060;-74
2021/04/21 07:28:54;;;;;;;82.35;54.63;;;;;;;15.25;51.80;101101.66;5032964;28;20795;-69
2021/04/21 07:31:22;;;;;;;87.38;54.72;;;;;;;15.30;55.00;101104.25;5051529;28;20049;-70
2021/04/21 07:33:50;;;;;;;86.47;53.28;;;;;;;15.79;55.10;101105.41;5033167;28;20051;-74
2021/04/21 07:36:22;;;;;;;81.22;57.22;;;;;;;16.19;53.43;101100.16;5050778;28;20044;-71
2021/04/21 07:38:50;;;;;;;85.68;54.72;;;;;;;15.38;49.61;101106.16;5050079;28;20045;-69
2021/04/21 07:41:38;;;;;;;91.82;55.25;;;;;;;15.22;51.80;101109.84;4999744;28;20056;-71
2021/04/21 07:44:24;;;;;;;75.00;49.22;;;;;;;15.69;54.77;101112.16;5028916;28;20056;-69
2021/04/21 07:47:12;;;;;;;83.28;53.67;;;;;;;15.91;54.47;101104.66;5043215;28;20045;-70
2021/04/21 07:49:53;;;;;;;96.10;58.25;;;;;;;15.95;54.02;101105.59;5050573;28;20048;-67
2021/04/21 07:52:25;;;;;;;89.78;54.38;;;;;;;15.94;49.65;101107.56;5033799;28;20064;-72
2021/04/21 07:55:17;;;;;;;80.93;54.28;;;;;;;15.94;53.40;101107.56;5050027;28;20477;-72
2021/04/21 07:57:57;;;;;;;84.22;52.75;;;;;;;15.89;53.57;101113.31;5050707;28;20053;-70
2021/04/21 08:00:26;;;;;;;;;;;;;;;16.19;53.40;101112.09;5032181;28;20056;-69
2021/04/21 08:02:53;;;;;;;85.43;55.33;;;;;;;16.16;50.79;101112.75;5049566;28;19921;-72
2021/04/21 08:05:20;;;;;;;88.50;55.17;;;;;;;16.77;49.60;101111.81;5015538;28;20057;-71
2021/04/21 08:08:03;;;;;;;82.68;53.13;;;;;;;16.85;51.37;101110.91;5032923;28;20049;-70
2021/04/21 08:10:35;;;;;;;80.82;52.33;;;;;;;17.49;48.53;101107.44;4997925;28;20057;-67
2021/04/21 08:13:03;;;;;;;70.43;47.60;;;;;;;17.79;48.33;101108.78;5015362;28;20389;-73
2021/04/21 08:15:39;;;;;;;83.20;56.20;;;;;;;17.90;49.79;101110.72;5049702;28;20057;-73
2021/04/21 08:18:10;;;;;;;79.60;51.20;;;;;;;17.97;46.85;101107.34;5031258;28;20545;-73
2021/04/21 08:20:52;;;;;;;85.72;57.30;;;;;;;16.62;44.66;101106.91;5015838;28;20045;-73
2021/04/21 08:23:30;;;;;;;85.40;55.00;;;;;;;16.72;46.91;101109.25;5050350;28;20147;-66
2021/04/21 08:25:58;;;;;;;85.72;51.45;;;;;;;16.87;48.64;101113.34;5045004;28;20060;-71
2021/04/21 08:28:25;;;;;;;81.18;52.03;;;;;;;16.11;49.70;101110.19;5016957;28;20053;-71
2021/04/21 08:30:58;;;;;;;84.32;49.67;;;;;;;16.60;47.81;101112.00;5051646;28;20361;-72
2021/04/21 08:33:29;;;;;;;74.35;50.13;;;;;;;17.13;48.78;101113.81;5048965;28;20056;-72
2021/04/21 08:35:56;;;;;;;79.40;49.70;;;;;;;17.01;45.95;101111.03;5032496;28;20052;-72
2021/04/21 08:38:23;;;;;;;79.30;48.75;;;;;;;17.32;47.02;101119.63;5032673;28;20053;-72
2021/04/21 08:40:51;;;;;;;83.63;51.50;;;;;;;17.08;46.57;101107.66;5030542;28;20049;-71
2021/04/21 08:43:20;;;;;;;79.70;52.10;;;;;;;16.79;44.51;101117.03;5041094;28;20049;-72
2021/04/21 08:45:47;;;;;;;87.43;52.45;;;;;;;16.15;47.34;101115.88;5040981;28;20049;-71
2021/04/21 08:48:15;;;;;;;77.50;48.92;;;;;;;16.39;45.73;101111.22;5034389;28;20073;-72
2021/04/21 08:50:43;;;;;;;72.95;46.92;;;;;;;16.59;46.81;101124.31;5033533;28;20045;-71
2021/04/21 08:53:11;;;;;;;84.00;50.45;;;;;;;16.38;46.17;101117.13;5031141;28;20057;-73
2021/04/21 08:55:39;;;;;;;80.95;48.17;;;;;;;16.58;47.51;101119.09;5033177;28;20053;-70
2021/04/21 08:58:10;;;;;;;79.30;47.95;;;;;;;16.72;46.37;101130.69;5033833;28;20041;-74
2021/04/21 09:00:39;;;;;;;76.32;49.00;;;;;;;16.86;46.81;101122.84;5032434;28;20052;-70
2021/04/21 09:03:07;;;;;;;83.35;49.42;;;;;;;17.20;45.48;101125.19;5044941;28;20056;-71
2021/04/21 09:05:34;;;;;;;82.45;49.13;;;;;;;16.65;44.51;101124.88;5033060;28;20075;-71
2021/04/21 09:08:02;;;;;;;79.20;48.97;;;;;;;16.59;45.35;101127.09;5033706;28;20045;-73
2021/04/21 09:10:30;;;;;;;70.72;45.00;;;;;;;16.70;44.74;101119.91;5033731;28;20049;-71
2021/04/21 09:12:57;;;;;;;75.32;46.05;;;;;;;16.64;43.93;101124.09;5033416;28;20048;-69
2021/04/21 09:15:24;;;;;;;78.75;48.78;;;;;;;16.56;45.56;101121.41;5045271;28;20049;-72
2021/04/21 09:17:52;;;;;;;69.45;45.22;;;;;;;16.68;44.50;101129.78;5043483;28;20052;-72
2021/04/21 09:20:24;;;;;;;75.07;45.08;;;;;;;16.79;43.77;101114.25;5044997;28;20056;-67
2021/04/21 09:23:19;;;;;;;73.70;44.83;;;;;;;16.88;45.07;101126.91;5032538;28;20052;-68
2021/04/21 09:25:49;;;;;;;86.05;49.58;;;;;;;16.58;45.07;101133.78;5033942;28;20064;-72
2021/04/21 09:28:19;;;;;;;75.35;44.95;;;;;;;16.80;44.93;101127.00;5045554;28;20048;-69
2021/04/21 09:30:57;;;;;;;78.05;48.58;;;;;;;16.67;44.96;101131.72;5045218;28;20068;-69
2021/04/21 09:33:29;;;;;;;80.05;49.53;;;;;;;16.93;43.92;101133.41;5031143;28;20056;-70
2021/04/21 09:35:58;;;;;;;70.47;45.63;;;;;;;16.70;45.48;101138.59;5043778;28;20049;-68
2021/04/21 09:38:29;;;;;;;79.72;46.25;;;;;;;17.41;43.60;101139.81;5045637;28;20072;-70
2021/04/21 09:41:17;;;;;;;72.20;44.40;;;;;;;17.58;43.48;101133.19;5048065;28;20049;-69
2021/04/21 09:43:45;;;;;;;72.53;44.35;;;;;;;17.20;41.59;101138.28;5046576;28;20049;-71
2021/04/21 09:46:17;;;;;;;67.55;42.70;;;;;;;16.67;42.51;101137.28;5045381;28;20184;-70
2021/04/21 09:48:46;;;;;;;66.65;40.67;;;;;;;17.00;42.62;101128.88;5037013;28;20409;-70
2021/04/21 09:51:19;;;;;;;65.88;40.05;;;;;;;16.79;42.38;101140.09;5045377;28;20068;-71
2021/04/21 09:53:48;;;;;;;58.67;39.83;;;;;;;16.99;42.42;101135.63;5033567;28;20048;-67
2021/04/21 09:56:20;;;;;;;60.75;37.22;;;;;;;16.88;41.80;101126.09;5043010;28;20095;-66
2021/04/21 09:59:06;;;;;;;73.90;39.30;;;;;;;16.92;41.30;101129.81;5042429;28;20041;-67
2021/04/21 10:01:35;;;;;;;59.38;36.95;;;;;;;17.06;41.23;101121.94;5045240;28;20051;-69
2021/04/21 10:04:21;;;;;;;57.70;34.00;;;;;;;17.00;40.66;101119.75;5045106;28;20060;-67
2021/04/21 10:06:50;;;;;;;55.40;34.22;;;;;;;17.15;41.13;101127.41;5043078;28;20064;-68
2021/04/21 10:09:31;;;;;;;62.67;36.15;;;;;;;17.15;41.92;101127.41;5043530;28;20048;-68
2021/04/21 10:12:21;;;;;;;62.28;33.38;;;;;;;17.14;40.16;101123.78;5044307;28;20659;-73
2021/04/21 10:14:49;;;;;;;;;;;;;;;17.17;40.38;101133.44;5045015;28;20056;-72
2021/04/21 10:17:17;;;;;;;52.67;32.58;;;;;;;17.44;42.15;101121.56;5016430;28;19927;-68
2021/04/21 10:19:44;;;;;;;53.42;32.00;;;;;;;17.91;43.73;101119.91;5046922;28;20060;-67
2021/04/21 10:22:12;;;;;;;53.70;32.88;;;;;;;17.75;38.56;101122.59;5043717;28;20054;-67
2021/04/21 10:24:40;;;;;;;52.30;30.05;;;;;;;17.40;41.38;101115.88;5047747;28;20417;-70
2021/04/21 10:27:08;;;;;;;53.40;32.08;;;;;;;17.44;39.52;101118.78;5015159;28;20576;-69
2021/04/21 10:29:36;;;;;;;51.38;31.00;;;;;;;17.62;41.52;101123.00;5042515;28;20408;-69
2021/04/21 10:32:04;;;;;;;49.65;30.58;;;;;;;17.70;38.98;101125.63;5047606;28;20053;-68
2021/04/21 10:34:31;;;;;;;48.47;29.08;;;;;;;17.30;41.60;101121.13;5043754;28;20053;-70
2021/04/21 10:36:59;;;;;;;46.20;30.20;;;;;;;17.46;39.58;101117.31;5042456;28;20049;-71
2021/04/21 10:39:31;;;;;;;44.65;30.00;;;;;;;17.60;39.14;101119.75;5042122;28;20072;-68
2021/04/21 10:42:11;;;;;;;44.33;29.13;;;;;;;17.66;39.32;101118.34;5043035;28;20057;-70
2021/04/21 10:44:43;;;;;;;50.15;32.60;;;;;;;17.62;41.28;101112.66;5029964;28;20048;-73
2021/04/21 10:47:20;;;;;;;49.38;32.28;;;;;;;17.32;39.92;101110.44;5028910;28;20397;-68
2021/04/21 10:49:50;;;;;;;54.67;33.47;;;;;;;17.49;39.97;101104.66;5044635;28;20048;-67
2021/04/21 10:52:30;;;;;;;48.53;30.20;;;;;;;17.57;39.74;101110.09;5044867;28;20052;-69
2021/04/21 10:55:06;;;;;;;53.95;33.88;;;;;;;17.30;39.18;101104.41;5043029;28;20394;-67
2021/04/21 10:57:38;;;;;;;48.72;32.63;;;;;;;17.43;40.10;101106.03;5042336;28;20064;-74
2021/04/21 11:00:16;;;;;;;47.33;31.80;;;;;;;17.63;40.67;101110.66;5028949;28;20052;-71
2021/04/21 11:02:49;;;;;;;46.00;33.22;;;;;;;18.00;41.10;101106.63;5042922;28;20052;-70
2021/04/21 11:05:20;;;;;;;47.92;30.85;;;;;;;18.13;38.83;101104.63;5043491;28;20511;-71
2021/04/21 11:08:11;;;;;;;49.13;31.55;;;;;;;18.04;38.61;101101.16;5045089;28;20071;-71
2021/04/21 11:10:53;;;;;;;57.42;30.13;;;;;;;18.18;40.58;101107.97;5041732;28;20053;-73
2021/04/21 11:13:25;;;;;;;45.80;29.70;;;;;;;17.79;38.45;101106.81;5042259;28;20041;-68
2021/04/21 11:15:54;;;;;;;46.28;30.10;;;;;;;17.81;39.02;101106.47;5028007;28;20057;-70
2021/04/21 11:18:28;;;;;;;45.10;29.80;;;;;;;17.81;39.77;101114.81;5042355;28;20481;-67
2021/04/21 11:21:18;;;;;;;45.35;31.45;;;;;;;17.80;38.24;101099.28;5028153;28;20205;-69
2021/04/21 11:24:05;;;;;;;47.53;29.70;;;;;;;17.72;38.49;101105.78;5040513;28;20045;-68
2021/04/21 11:26:41;;;;;;;40.65;28.63;;;;;;;17.70;38.78;101100.56;5041983;28;20476;-71
2021/04/21 11:29:29;;;;;;;43.00;27.98;;;;;;;17.98;37.06;101097.81;5043946;28;20057;-69
2021/04/21 11:31:57;;;;;;;38.10;25.42;;;;;;;18.07;37.60;101080.94;5005617;28;20045;-71
2021/04/21 11:34:34;;;;;;;38.30;25.45;;;;;;;18.16;36.76;101081.59;4995741;28;20045;-70
2021/04/21 11:37:07;;;;;;;39.75;25.27;;;;;;;17.94;36.88;101096.88;5001888;28;20060;-72
2021/04/21 11:39:40;;;;;;;32.55;22.10;;;;;;;18.29;36.02;101081.19;5013928;28;20661;-70
2021/04/21 11:42:16;;;;;;;40.40;23.92;;;;;;;18.08;36.62;101074.22;4989295;28;20060;-70
2021/04/21 11:44:54;;;;;;;34.17;21.63;;;;;;;18.35;36.20;101081.72;5004981;28;20059;-72